createdAt,value
2019-03-30T00:00:20.075Z,57.10
2019-03-30T00:02:25.822Z,60.03
2019-03-30T00:04:30.207Z,51.53
2019-03-30T00:06:34.693Z,53.33
2019-03-30T00:08:39.061Z,59.17
2019-03-30T00:10:43.475Z,51.53
2019-03-30T00:12:48.235Z,49.43
2019-03-30T00:14:52.787Z,48.50
2019-03-30T00:16:57.176Z,50.63
2019-03-30T00:19:01.571Z,53.10
2019-03-30T00:21:06.039Z,56.27
2019-03-30T00:23:10.628Z,48.60
2019-03-30T00:25:15.089Z,55.20
2019-03-30T00:27:19.689Z,56.77
2019-03-30T00:29:24.104Z,63.87
2019-03-30T00:31:28.612Z,63.00
2019-03-30T00:33:33.107Z,56.40
2019-03-30T00:35:37.523Z,60.23
2019-03-30T00:37:42.027Z,56.60
2019-03-30T00:39:46.394Z,48.30
2019-03-30T00:41:50.763Z,50.43
2019-03-30T00:43:55.331Z,53.00
2019-03-30T00:45:59.720Z,51.60
2019-03-30T00:48:04.344Z,51.20
2019-03-30T00:50:09.260Z,40.87
2019-03-30T00:52:13.844Z,43.70
2019-03-30T00:54:18.239Z,45.03
2019-03-30T00:56:22.656Z,46.00
2019-03-30T00:58:27.237Z,49.07
2019-03-30T01:00:31.758Z,47.27
2019-03-30T01:02:36.247Z,51.47
2019-03-30T01:04:40.699Z,56.07
2019-03-30T01:06:45.060Z,51.50
2019-03-30T01:08:49.423Z,53.33
2019-03-30T01:10:53.924Z,57.73
2019-03-30T01:12:58.300Z,49.57
2019-03-30T01:15:02.655Z,48.10
2019-03-30T01:17:07.623Z,53.60
2019-03-30T01:19:12.047Z,54.83
2019-03-30T01:21:16.498Z,58.13
2019-03-30T01:23:20.894Z,57.27
2019-03-30T01:25:25.331Z,55.20
2019-03-30T01:27:29.795Z,55.47
2019-03-30T01:29:34.215Z,55.20
2019-03-30T01:31:38.574Z,56.73
2019-03-30T01:33:42.964Z,58.73
2019-03-30T01:35:47.336Z,56.77
2019-03-30T01:37:51.821Z,58.57
2019-03-30T01:39:56.456Z,68.30
2019-03-30T01:42:00.849Z,61.77
2019-03-30T01:44:05.383Z,63.70
2019-03-30T01:46:09.859Z,59.77
2019-03-30T01:48:14.306Z,57.43
2019-03-30T01:50:18.975Z,56.30
2019-03-30T01:52:23.370Z,54.87
2019-03-30T01:54:27.860Z,67.67
2019-03-30T01:56:32.232Z,52.77
2019-03-30T01:58:36.646Z,56.17
2019-03-30T02:00:41.363Z,55.67
2019-03-30T02:02:46.002Z,62.57
2019-03-30T02:04:50.547Z,52.97
2019-03-30T02:06:55.024Z,60.40
2019-03-30T02:08:59.439Z,59.40
2019-03-30T02:11:04.011Z,57.63
2019-03-30T02:13:08.544Z,58.60
2019-03-30T02:15:13.375Z,60.80
2019-03-30T02:17:20.132Z,65.47
2019-03-30T02:19:24.211Z,54.77
2019-03-30T02:21:28.746Z,59.80
2019-03-30T02:23:33.092Z,52.23
2019-03-30T02:25:37.619Z,51.67
2019-03-30T02:27:42.100Z,54.60
2019-03-30T02:29:49.662Z,58.83
2019-03-30T02:31:54.109Z,55.53
2019-03-30T02:33:58.702Z,56.77
2019-03-30T02:36:03.313Z,53.20
2019-03-30T02:38:07.673Z,54.30
2019-03-30T02:40:12.239Z,50.20
2019-03-30T02:42:16.627Z,50.73
2019-03-30T02:44:21.087Z,52.20
2019-03-30T02:46:25.555Z,54.53
2019-03-30T02:48:30.045Z,53.40
2019-03-30T02:50:48.145Z,57.70
2019-03-30T02:52:40.497Z,47.43
2019-03-30T02:54:44.881Z,52.27
2019-03-30T02:56:49.265Z,57.83
2019-03-30T02:58:53.712Z,46.33
2019-03-30T03:00:58.096Z,46.90
2019-03-30T03:03:02.531Z,49.40
2019-03-30T03:05:08.057Z,57.17
2019-03-30T03:07:12.415Z,59.20
2019-03-30T03:09:16.824Z,57.47
2019-03-30T03:11:21.379Z,55.87
2019-03-30T03:13:25.836Z,59.70
2019-03-30T03:15:30.283Z,52.50
2019-03-30T03:17:34.883Z,60.03
2019-03-30T03:19:39.436Z,52.87
2019-03-30T03:21:43.794Z,50.83
2019-03-30T03:23:48.158Z,50.10
2019-03-30T03:25:52.562Z,54.37
2019-03-30T03:27:56.998Z,52.87
2019-03-30T03:30:01.559Z,55.33
2019-03-30T03:32:06.098Z,47.97
2019-03-30T03:34:10.554Z,48.50
2019-03-30T03:36:14.910Z,58.43
2019-03-30T03:38:19.477Z,51.13
2019-03-30T03:40:23.843Z,51.20
2019-03-30T03:42:28.698Z,51.17
2019-03-30T03:44:33.316Z,49.13
2019-03-30T03:46:37.690Z,56.90
2019-03-30T03:48:42.311Z,50.40
2019-03-30T03:50:50.848Z,56.67
2019-03-30T03:52:55.531Z,48.83
2019-03-30T03:55:00.612Z,47.77
2019-03-30T03:57:06.307Z,46.30
2019-03-30T03:59:12.867Z,48.63
2019-03-30T04:01:20.247Z,50.07
2019-03-30T04:03:26.375Z,54.13
2019-03-30T04:05:31.799Z,51.47
2019-03-30T04:07:41.043Z,47.97
2019-03-30T04:09:48.536Z,44.37
2019-03-30T04:11:55.127Z,51.73
2019-03-30T04:14:01.477Z,51.57
2019-03-30T04:16:06.077Z,50.03
2019-03-30T04:18:10.565Z,47.70
2019-03-30T04:20:18.622Z,52.27
2019-03-30T04:22:23.052Z,50.33
2019-03-30T04:24:27.527Z,44.40
2019-03-30T04:26:31.961Z,54.10
2019-03-30T04:28:36.348Z,49.40
2019-03-30T04:30:40.864Z,57.17
2019-03-30T04:32:45.319Z,44.40
2019-03-30T04:34:49.779Z,50.73
2019-03-30T04:36:55.445Z,59.70
2019-03-30T04:38:59.856Z,46.43
2019-03-30T04:41:04.626Z,49.83
2019-03-30T04:43:09.073Z,46.53
2019-03-30T04:45:13.527Z,47.07
2019-03-30T04:47:17.895Z,44.80
2019-03-30T04:49:22.407Z,45.37
2019-03-30T04:51:26.855Z,43.00
2019-03-30T04:53:31.266Z,46.63
2019-03-30T04:55:35.707Z,45.60
2019-03-30T04:57:40.076Z,43.97
2019-03-30T04:59:44.519Z,46.60
2019-03-30T05:01:48.964Z,47.83
2019-03-30T05:03:53.623Z,44.60
2019-03-30T05:05:58.005Z,57.77
2019-03-30T05:08:02.459Z,49.17
2019-03-30T05:10:07.055Z,47.67
2019-03-30T05:12:11.427Z,44.70
2019-03-30T05:14:15.929Z,48.33
2019-03-30T05:16:20.539Z,48.67
2019-03-30T05:18:24.906Z,43.23
2019-03-30T05:20:29.359Z,44.30
2019-03-30T05:22:33.859Z,51.00
2019-03-30T05:24:38.259Z,46.63
2019-03-30T05:26:42.808Z,47.13
2019-03-30T05:28:47.219Z,39.80
2019-03-30T05:30:51.575Z,41.43
2019-03-30T05:33:05.578Z,40.10
2019-03-30T05:35:02.150Z,37.13
2019-03-30T05:37:06.529Z,47.80
2019-03-30T05:39:11.016Z,45.30
2019-03-30T05:41:15.355Z,42.70
2019-03-30T05:43:19.715Z,46.53
2019-03-30T05:45:24.219Z,42.00
2019-03-30T05:47:28.640Z,44.20
2019-03-30T05:49:33.050Z,38.60
2019-03-30T05:51:37.403Z,39.93
2019-03-30T05:53:41.800Z,36.77
2019-03-30T05:55:46.179Z,49.23
2019-03-30T05:57:50.634Z,47.30
2019-03-30T05:59:56.083Z,44.97
2019-03-30T06:02:00.808Z,39.73
2019-03-30T06:04:05.344Z,38.20
2019-03-30T06:06:09.771Z,41.13
2019-03-30T06:08:14.403Z,37.83
2019-03-30T06:10:18.878Z,42.30
2019-03-30T06:12:23.351Z,42.40
2019-03-30T06:14:27.745Z,36.23
2019-03-30T06:16:32.183Z,35.40
2019-03-30T06:18:40.963Z,41.73
2019-03-30T06:20:46.962Z,36.87
2019-03-30T06:22:51.954Z,33.80
2019-03-30T06:24:56.300Z,43.20
2019-03-30T06:27:00.752Z,38.93
2019-03-30T06:29:07.892Z,35.80
2019-03-30T06:31:17.517Z,40.97
2019-03-30T06:33:22.930Z,34.60
2019-03-30T06:35:27.892Z,41.20
2019-03-30T06:37:34.323Z,32.90
2019-03-30T06:39:38.883Z,40.73
2019-03-30T06:41:43.243Z,36.63
2019-03-30T06:43:47.766Z,36.63
2019-03-30T06:45:52.387Z,32.23
2019-03-30T06:47:57.107Z,37.53
2019-03-30T06:50:06.964Z,37.80
2019-03-30T06:52:11.741Z,32.20
2019-03-30T06:54:16.103Z,33.10
2019-03-30T06:56:23.515Z,37.40
2019-03-30T06:58:32.028Z,38.03
2019-03-30T07:00:37.270Z,29.03
2019-03-30T07:02:43.211Z,33.20
2019-03-30T07:04:54.692Z,34.20
2019-03-30T07:07:00.319Z,31.93
2019-03-30T07:09:26.258Z,30.40
2019-03-30T07:11:41.768Z,34.20
2019-03-30T07:13:47.319Z,38.60
2019-03-30T07:15:51.887Z,31.10
2019-03-30T07:17:59.923Z,31.07
2019-03-30T07:20:04.603Z,35.47
2019-03-30T07:22:12.088Z,30.23
2019-03-30T07:24:22.109Z,29.93
2019-03-30T07:26:27.227Z,29.60
2019-03-30T07:28:34.171Z,28.73
2019-03-30T07:30:39.039Z,31.67
2019-03-30T07:32:43.491Z,29.70
2019-03-30T07:34:47.852Z,30.30
2019-03-30T07:36:52.253Z,30.37
2019-03-30T07:38:56.652Z,28.40
2019-03-30T07:41:04.188Z,28.33
2019-03-30T07:43:09.998Z,27.10
2019-03-30T07:45:15.357Z,26.43
2019-03-30T07:47:19.889Z,27.90
2019-03-30T07:49:24.363Z,26.97
2019-03-30T07:51:28.820Z,25.33
2019-03-30T07:53:43.816Z,30.50
2019-03-30T07:55:39.848Z,30.40
2019-03-30T07:57:44.208Z,27.40
2019-03-30T07:59:48.598Z,32.00
2019-03-30T08:01:53.163Z,23.90
2019-03-30T08:03:57.635Z,28.13
2019-03-30T08:06:02.258Z,20.77
2019-03-30T08:08:06.719Z,29.87
2019-03-30T08:10:11.341Z,24.77
2019-03-30T08:12:15.885Z,24.73
2019-03-30T08:14:20.312Z,23.47
2019-03-30T08:16:24.759Z,27.40
2019-03-30T08:18:29.191Z,27.40
2019-03-30T08:20:33.703Z,25.43
2019-03-30T08:22:38.324Z,28.60
2019-03-30T08:24:42.824Z,26.03
2019-03-30T08:26:47.265Z,20.53
2019-03-30T08:28:51.735Z,35.13
2019-03-30T08:30:56.175Z,25.33
2019-03-30T08:33:00.704Z,24.30
2019-03-30T08:35:05.727Z,24.70
2019-03-30T08:37:10.125Z,23.53
2019-03-30T08:39:14.643Z,23.30
2019-03-30T08:41:19.152Z,27.07
2019-03-30T08:43:23.612Z,27.40
2019-03-30T08:45:27.998Z,28.73
2019-03-30T08:47:32.567Z,23.93
2019-03-30T08:49:37.012Z,24.80
2019-03-30T08:51:41.455Z,24.67
2019-03-30T08:53:54.573Z,26.10
2019-03-30T08:55:52.372Z,21.67
2019-03-30T08:57:56.884Z,22.30
2019-03-30T09:00:01.286Z,24.30
2019-03-30T09:02:06.020Z,19.07
2019-03-30T09:04:10.485Z,22.20
2019-03-30T09:06:15.087Z,26.80
2019-03-30T09:08:19.655Z,20.87
2019-03-30T09:10:24.100Z,28.40
2019-03-30T09:12:28.579Z,22.97
2019-03-30T09:14:33.171Z,23.90
2019-03-30T09:16:37.648Z,22.30
2019-03-30T09:18:42.116Z,19.33
2019-03-30T09:20:46.551Z,23.97
2019-03-30T09:22:51.127Z,28.17
2019-03-30T09:24:55.573Z,21.00
2019-03-30T09:27:00.031Z,24.53
2019-03-30T09:29:04.599Z,23.63
2019-03-30T09:31:08.964Z,27.27
2019-03-30T09:33:13.433Z,24.07
2019-03-30T09:35:18.254Z,23.37
2019-03-30T09:37:22.622Z,24.40
2019-03-30T09:39:27.047Z,21.23
2019-03-30T09:41:31.439Z,22.23
2019-03-30T09:43:37.549Z,18.30
2019-03-30T09:45:42.311Z,27.07
2019-03-30T09:47:46.856Z,19.47
2019-03-30T09:49:51.610Z,25.13
2019-03-30T09:51:56.071Z,18.40
2019-03-30T09:54:00.872Z,23.33
2019-03-30T09:56:05.428Z,23.43
2019-03-30T09:58:09.904Z,19.33
2019-03-30T10:00:14.691Z,22.40
2019-03-30T10:02:19.641Z,24.50
2019-03-30T10:04:24.031Z,23.77
2019-03-30T10:06:34.250Z,22.23
2019-03-30T10:08:34.699Z,18.80
2019-03-30T10:10:39.238Z,17.97
2019-03-30T10:12:43.802Z,24.57
2019-03-30T10:14:48.264Z,26.90
2019-03-30T10:16:52.687Z,24.60
2019-03-30T10:18:57.143Z,26.23
2019-03-30T10:21:01.575Z,25.53
2019-03-30T10:23:06.042Z,23.07
2019-03-30T10:25:10.667Z,27.83
2019-03-30T10:27:15.116Z,24.70
2019-03-30T10:29:19.636Z,25.07
2019-03-30T10:31:24.020Z,30.17
2019-03-30T10:34:00.420Z,34.30
2019-03-30T10:35:35.908Z,35.17
2019-03-30T10:37:40.369Z,17.17
2019-03-30T10:39:44.888Z,30.43
2019-03-30T10:41:49.385Z,30.83
2019-03-30T10:43:53.871Z,19.33
2019-03-30T10:45:58.352Z,21.90
2019-03-30T10:48:03.092Z,26.57
2019-03-30T10:50:08.829Z,31.50
2019-03-30T10:52:13.404Z,17.57
2019-03-30T10:54:17.840Z,27.37
2019-03-30T10:56:22.224Z,29.87
2019-03-30T10:58:26.779Z,32.10
2019-03-30T11:00:39.439Z,30.17
2019-03-30T11:02:43.797Z,28.03
2019-03-30T11:04:48.267Z,28.07
2019-03-30T11:06:52.703Z,22.97
2019-03-30T11:08:57.125Z,24.67
2019-03-30T11:11:01.870Z,29.23
2019-03-30T11:13:06.347Z,29.30
2019-03-30T11:15:10.699Z,28.50
2019-03-30T11:17:15.121Z,26.10
2019-03-30T11:19:19.531Z,28.93
2019-03-30T11:21:25.778Z,25.50
2019-03-30T11:23:30.330Z,28.97
2019-03-30T11:25:34.872Z,28.27
2019-03-30T11:27:39.349Z,29.40
2019-03-30T11:29:43.881Z,27.13
2019-03-30T11:31:48.388Z,28.50
2019-03-30T11:33:52.852Z,26.97
2019-03-30T11:35:57.228Z,36.63
2019-03-30T11:38:01.684Z,20.60
2019-03-30T11:40:06.277Z,28.80
2019-03-30T11:42:10.707Z,19.27
2019-03-30T11:44:15.629Z,26.93
2019-03-30T11:46:20.154Z,25.43
2019-03-30T11:48:25.221Z,19.33
2019-03-30T11:50:29.927Z,22.17
2019-03-30T11:52:34.315Z,24.00
2019-03-30T11:54:38.766Z,20.63
2019-03-30T11:56:43.331Z,20.40
2019-03-30T11:58:47.786Z,25.30
2019-03-30T12:00:52.375Z,18.83
2019-03-30T12:02:56.821Z,22.43
2019-03-30T12:05:01.274Z,20.23
2019-03-30T12:07:05.803Z,17.60
2019-03-30T12:09:10.319Z,20.53
2019-03-30T12:11:14.870Z,21.80
2019-03-30T12:13:19.377Z,19.07
2019-03-30T12:15:23.951Z,23.40
2019-03-30T12:17:28.417Z,25.03
2019-03-30T12:19:34.140Z,16.50
2019-03-30T12:21:38.519Z,18.10
2019-03-30T12:23:43.018Z,19.03
2019-03-30T12:25:47.645Z,14.07
2019-03-30T12:27:52.089Z,20.63
2019-03-30T12:29:56.771Z,26.73
2019-03-30T12:32:01.418Z,24.70
2019-03-30T12:34:06.214Z,17.73
2019-03-30T12:36:10.779Z,22.03
2019-03-30T12:38:15.152Z,21.20
2019-03-30T12:40:19.724Z,20.70
2019-03-30T12:42:24.280Z,16.27
2019-03-30T12:44:28.733Z,14.97
2019-03-30T12:46:33.204Z,16.23
2019-03-30T12:48:37.579Z,18.07
2019-03-30T12:50:42.018Z,14.07
2019-03-30T12:52:46.481Z,16.47
2019-03-30T12:54:50.923Z,18.80
2019-03-30T12:56:55.321Z,16.50
2019-03-30T12:58:59.775Z,16.20
2019-03-30T13:01:04.240Z,16.03
2019-03-30T13:03:08.777Z,15.13
2019-03-30T13:05:13.435Z,19.47
2019-03-30T13:07:17.903Z,18.30
2019-03-30T13:09:22.503Z,18.97
2019-03-30T13:11:26.940Z,17.03
2019-03-30T13:13:31.414Z,18.40
2019-03-30T13:15:36.079Z,13.57
2019-03-30T13:17:40.600Z,11.50
2019-03-30T13:19:45.155Z,14.70
2019-03-30T13:21:52.767Z,11.00
2019-03-30T13:23:56.190Z,13.70
2019-03-30T13:26:03.835Z,11.77
2019-03-30T13:28:07.205Z,11.30
2019-03-30T13:30:13.092Z,12.90
2019-03-30T13:32:17.491Z,16.90
2019-03-30T13:34:22.019Z,11.57
2019-03-30T13:36:42.961Z,14.23
2019-03-30T13:38:47.711Z,15.03
2019-03-30T13:40:52.331Z,14.30
2019-03-30T13:42:56.812Z,12.43
2019-03-30T13:45:03.400Z,10.73
2019-03-30T13:47:07.519Z,14.47
2019-03-30T13:49:11.965Z,17.53
2019-03-30T13:51:16.407Z,15.27
2019-03-30T13:53:20.802Z,12.80
2019-03-30T13:55:25.235Z,14.87
2019-03-30T13:57:29.611Z,17.20
2019-03-30T13:59:34.325Z,12.23
2019-03-30T14:01:38.971Z,15.60
2019-03-30T14:03:43.368Z,9.00
2019-03-30T14:05:47.870Z,10.70
2019-03-30T14:07:52.471Z,12.87
2019-03-30T14:09:56.910Z,14.67
2019-03-30T14:12:01.576Z,14.40
2019-03-30T14:14:06.088Z,17.80
2019-03-30T14:16:10.671Z,13.00
2019-03-30T14:18:15.159Z,12.87
2019-03-30T14:20:19.760Z,12.73
2019-03-30T14:22:27.205Z,12.80
2019-03-30T14:24:31.723Z,13.33
2019-03-30T14:26:36.087Z,13.53
2019-03-30T14:28:40.451Z,9.40
2019-03-30T14:30:44.979Z,14.13
2019-03-30T14:32:49.410Z,16.63
2019-03-30T14:34:53.953Z,13.43
2019-03-30T14:36:58.478Z,14.90
2019-03-30T14:39:02.946Z,9.97
2019-03-30T14:41:07.311Z,13.50
2019-03-30T14:43:11.675Z,10.10
2019-03-30T14:45:16.203Z,11.83
2019-03-30T14:47:20.628Z,11.70
2019-03-30T14:49:25.106Z,13.00
2019-03-30T14:51:29.621Z,12.53
2019-03-30T14:53:34.307Z,12.73
2019-03-30T14:55:39.703Z,13.80
2019-03-30T14:57:44.537Z,11.70
2019-03-30T14:59:48.934Z,11.63
2019-03-30T15:01:53.363Z,13.40
2019-03-30T15:03:57.962Z,13.23
2019-03-30T15:06:02.423Z,11.03
2019-03-30T15:08:07.584Z,11.13
2019-03-30T15:10:12.468Z,12.20
2019-03-30T15:12:16.923Z,13.80
2019-03-30T15:14:21.326Z,16.60
2019-03-30T15:16:25.762Z,13.70
2019-03-30T15:18:30.218Z,25.23
2019-03-30T15:20:34.579Z,9.77
2019-03-30T15:22:39.188Z,15.10
2019-03-30T15:24:45.915Z,11.00
2019-03-30T15:26:59.893Z,14.60
2019-03-30T15:28:56.934Z,12.30
2019-03-30T15:31:01.347Z,14.13
2019-03-30T15:33:12.689Z,12.03
2019-03-30T15:35:18.206Z,14.23
2019-03-30T15:37:22.609Z,12.43
2019-03-30T15:39:27.083Z,9.50
2019-03-30T15:41:31.538Z,13.70
2019-03-30T15:43:38.515Z,15.43
2019-03-30T15:45:42.272Z,14.27
2019-03-30T15:47:46.798Z,14.87
2019-03-30T15:49:51.314Z,14.80
2019-03-30T15:51:55.786Z,15.00
2019-03-30T15:54:06.852Z,11.67
2019-03-30T15:56:11.299Z,11.70
2019-03-30T15:58:18.336Z,12.83
2019-03-30T16:00:22.883Z,14.87
2019-03-30T16:02:27.519Z,13.80
2019-03-30T16:04:34.379Z,12.57
2019-03-30T16:06:38.915Z,14.43
2019-03-30T16:08:43.480Z,12.63
2019-03-30T16:10:48.261Z,16.90
2019-03-30T16:12:52.872Z,18.23
2019-03-30T16:14:59.715Z,11.43
2019-03-30T16:17:04.170Z,12.90
2019-03-30T16:19:08.699Z,12.60
2019-03-30T16:21:13.135Z,17.03
2019-03-30T16:23:19.439Z,13.37
2019-03-30T16:25:23.954Z,12.00
2019-03-30T16:27:29.563Z,11.20
2019-03-30T16:29:34.399Z,12.57
2019-03-30T16:31:38.948Z,13.30
2019-03-30T16:33:46.741Z,15.30
2019-03-30T16:35:49.595Z,12.90
2019-03-30T16:37:54.163Z,13.47
2019-03-30T16:39:58.681Z,12.67
2019-03-30T16:42:03.148Z,12.90
2019-03-30T16:44:07.614Z,14.20
2019-03-30T16:46:12.708Z,11.97
2019-03-30T16:48:17.155Z,13.27
2019-03-30T16:50:21.692Z,13.60
2019-03-30T16:52:26.063Z,13.70
2019-03-30T16:54:31.400Z,11.87
2019-03-30T16:56:35.883Z,12.90
2019-03-30T16:58:40.414Z,12.50
2019-03-30T17:00:56.279Z,13.10
2019-03-30T17:02:51.011Z,11.20
2019-03-30T17:04:55.420Z,19.23
2019-03-30T17:06:59.862Z,11.93
2019-03-30T17:09:05.470Z,12.47
2019-03-30T17:11:10.029Z,13.87
2019-03-30T17:13:14.694Z,14.10
2019-03-30T17:15:19.278Z,14.00
2019-03-30T17:17:23.729Z,12.37
2019-03-30T17:19:28.195Z,14.47
2019-03-30T17:21:32.723Z,12.67
2019-03-30T17:23:37.270Z,10.43
2019-03-30T17:25:41.733Z,11.93
2019-03-30T17:27:57.607Z,14.37
2019-03-30T17:29:52.619Z,14.40
2019-03-30T17:31:57.009Z,17.07
2019-03-30T17:34:01.574Z,12.30
2019-03-30T17:36:06.057Z,11.10
2019-03-30T17:38:10.550Z,11.37
2019-03-30T17:40:14.994Z,15.97
2019-03-30T17:42:19.571Z,15.07
2019-03-30T17:44:24.147Z,28.23
2019-03-30T17:46:28.682Z,35.77
2019-03-30T17:48:33.234Z,39.67
2019-03-30T17:50:37.776Z,43.17
2019-03-30T17:52:42.425Z,49.73
2019-03-30T17:54:46.907Z,45.63
2019-03-30T17:56:51.335Z,40.07
2019-03-30T17:58:55.805Z,47.83
2019-03-30T18:01:00.568Z,44.93
2019-03-30T18:03:05.144Z,47.33
2019-03-30T18:05:09.931Z,45.73
2019-03-30T18:07:14.488Z,47.37
2019-03-30T18:09:19.155Z,39.47
2019-03-30T18:11:23.737Z,44.93
2019-03-30T18:13:28.203Z,52.93
2019-03-30T18:15:34.686Z,53.03
2019-03-30T18:17:38.898Z,56.57
2019-03-30T18:19:43.415Z,51.73
2019-03-30T18:21:47.870Z,53.77
2019-03-30T18:23:52.310Z,60.27
2019-03-30T18:25:56.832Z,62.37
2019-03-30T18:28:01.283Z,63.67
2019-03-30T18:30:06.811Z,49.13
2019-03-30T18:32:12.932Z,59.07
2019-03-30T18:34:17.395Z,53.97
2019-03-30T18:36:22.449Z,57.43
2019-03-30T18:38:27.215Z,56.13
2019-03-30T18:40:32.594Z,54.27
2019-03-30T18:42:37.187Z,53.70
2019-03-30T18:44:42.191Z,55.50
2019-03-30T18:46:46.639Z,64.57
2019-03-30T18:48:51.364Z,57.60
2019-03-30T18:50:55.913Z,67.37
2019-03-30T18:53:00.882Z,54.27
2019-03-30T18:55:05.775Z,48.97
2019-03-30T18:57:10.925Z,61.80
2019-03-30T18:59:15.307Z,34.40
2019-03-30T19:01:19.674Z,62.13
2019-03-30T19:03:24.124Z,56.00
2019-03-30T19:05:28.667Z,69.80
2019-03-30T19:07:34.244Z,73.33
2019-03-30T19:09:38.735Z,71.10
2019-03-30T19:11:43.212Z,54.87
2019-03-30T19:13:51.205Z,71.73
2019-03-30T19:15:53.932Z,80.57
2019-03-30T19:17:58.551Z,75.80
2019-03-30T19:20:03.071Z,73.10
2019-03-30T19:22:07.664Z,76.50
2019-03-30T19:24:14.555Z,79.53
2019-03-30T19:26:19.091Z,73.57
2019-03-30T19:28:23.615Z,72.97
2019-03-30T19:30:29.032Z,60.90
2019-03-30T19:32:33.475Z,48.70
2019-03-30T19:34:38.054Z,59.37
2019-03-30T19:36:42.551Z,67.77
2019-03-30T19:38:47.003Z,76.70
2019-03-30T19:40:51.509Z,83.70
2019-03-30T19:42:55.982Z,86.80
2019-03-30T19:45:00.475Z,80.47
2019-03-30T19:47:04.868Z,75.97
2019-03-30T19:49:09.431Z,40.23
2019-03-30T19:51:13.896Z,72.63
2019-03-30T19:53:18.295Z,74.17
2019-03-30T19:55:22.681Z,84.90
2019-03-30T19:57:27.897Z,90.23
2019-03-30T19:59:32.576Z,67.30
2019-03-30T20:01:37.011Z,36.80
2019-03-30T20:03:41.525Z,87.13
2019-03-30T20:05:46.096Z,78.97
2019-03-30T20:07:50.635Z,63.43
2019-03-30T20:09:55.115Z,68.10
2019-03-30T20:11:59.864Z,64.70
2019-03-30T20:14:04.395Z,60.23
2019-03-30T20:16:08.793Z,53.00
2019-03-30T20:18:13.395Z,42.47
2019-03-30T20:20:17.910Z,65.83
2019-03-30T20:22:22.372Z,65.67
2019-03-30T20:24:26.819Z,58.33
2019-03-30T20:26:31.206Z,61.60
2019-03-30T20:28:37.095Z,69.77
2019-03-30T20:30:41.582Z,62.80
2019-03-30T20:32:46.031Z,73.83
2019-03-30T20:34:50.559Z,75.00
2019-03-30T20:36:55.016Z,57.43
2019-03-30T20:38:59.607Z,77.60
2019-03-30T20:41:04.063Z,61.03
2019-03-30T20:43:08.509Z,74.57
2019-03-30T20:45:15.927Z,32.97
2019-03-30T20:47:20.667Z,72.97
2019-03-30T20:49:25.206Z,75.57
2019-03-30T20:51:29.704Z,59.93
2019-03-30T20:53:34.531Z,70.93
2019-03-30T20:55:39.124Z,77.00
2019-03-30T20:57:43.544Z,53.73
2019-03-30T20:59:48.163Z,48.40
2019-03-30T21:01:52.683Z,64.77
2019-03-30T21:03:57.111Z,86.13
2019-03-30T21:06:01.667Z,56.37
2019-03-30T21:08:06.459Z,66.83
2019-03-30T21:10:11.786Z,64.07
2019-03-30T21:12:16.251Z,83.80
2019-03-30T21:14:20.728Z,75.77
2019-03-30T21:16:25.195Z,70.07
2019-03-30T21:18:29.647Z,86.77
2019-03-30T21:20:34.118Z,76.93
2019-03-30T21:22:38.674Z,71.53
2019-03-30T21:24:43.040Z,82.67
2019-03-30T21:26:47.632Z,78.30
2019-03-30T21:28:52.081Z,83.07
2019-03-30T21:30:56.536Z,88.00
2019-03-30T21:33:00.959Z,75.70
2019-03-30T21:35:06.339Z,71.70
2019-03-30T21:37:10.780Z,77.63
2019-03-30T21:39:15.360Z,106.03
2019-03-30T21:41:19.779Z,89.07
2019-03-30T21:43:24.244Z,87.90
2019-03-30T21:45:28.913Z,78.67
2019-03-30T21:47:33.402Z,101.40
2019-03-30T21:49:37.921Z,70.70
2019-03-30T21:51:42.381Z,92.47
2019-03-30T21:53:46.879Z,73.57
2019-03-30T21:55:51.299Z,85.07
2019-03-30T21:57:55.803Z,94.50
2019-03-30T22:00:09.825Z,88.83
2019-03-30T22:02:06.491Z,90.87
2019-03-30T22:04:10.882Z,86.37
2019-03-30T22:06:15.540Z,98.10
2019-03-30T22:08:20.270Z,74.67
2019-03-30T22:10:28.790Z,94.13
2019-03-30T22:12:33.259Z,82.07
2019-03-30T22:14:37.715Z,85.70
2019-03-30T22:16:42.136Z,102.93
2019-03-30T22:18:46.502Z,63.93
2019-03-30T22:20:50.885Z,96.03
2019-03-30T22:22:55.270Z,90.33
2019-03-30T22:24:59.707Z,102.47
2019-03-30T22:27:04.164Z,99.07
2019-03-30T22:29:08.595Z,86.20
2019-03-30T22:31:13.017Z,85.53
2019-03-30T22:33:17.403Z,67.03
2019-03-30T22:35:21.865Z,90.03
2019-03-30T22:37:26.351Z,101.50
2019-03-30T22:39:30.976Z,101.87
2019-03-30T22:41:35.334Z,108.10
2019-03-30T22:43:39.954Z,96.90
2019-03-30T22:45:44.546Z,98.77
2019-03-30T22:47:49.080Z,106.37
2019-03-30T22:49:53.447Z,67.90
2019-03-30T22:51:57.911Z,97.07
2019-03-30T22:54:02.432Z,78.57
2019-03-30T22:56:06.866Z,66.63
2019-03-30T22:58:11.391Z,97.67
2019-03-30T23:00:38.993Z,82.80
2019-03-30T23:02:43.843Z,94.83
2019-03-30T23:04:48.219Z,82.93
2019-03-30T23:06:52.691Z,94.60
2019-03-30T23:08:57.213Z,71.73
2019-03-30T23:11:01.720Z,105.37
2019-03-30T23:13:06.260Z,88.93
2019-03-30T23:15:10.860Z,99.67
2019-03-30T23:17:15.295Z,105.00
2019-03-30T23:21:23.731Z,82.57
2019-03-30T23:23:28.302Z,74.33
2019-03-30T23:25:32.672Z,94.00
2019-03-30T23:27:37.073Z,79.77
2019-03-30T23:29:41.561Z,90.47
2019-03-30T23:31:45.909Z,81.90
2019-03-30T23:33:50.283Z,66.90
2019-03-30T23:35:54.820Z,72.43
2019-03-30T23:37:59.204Z,84.00
2019-03-30T23:40:03.797Z,71.50
2019-03-30T23:42:08.341Z,60.87
2019-03-30T23:44:12.878Z,63.20
2019-03-30T23:46:17.242Z,47.63
2019-03-30T23:48:21.797Z,42.40
2019-03-30T23:50:26.353Z,52.77
2019-03-30T23:52:30.712Z,56.87
2019-03-30T23:54:35.087Z,60.93
2019-03-30T23:56:39.527Z,58.10
2019-03-30T23:58:43.889Z,60.13
